Aviation Digital Data Service (ADDS)

Output produced by METARs form (0740 UTC 24 May 2018)
found at http://www.aviationweather.gov/adds/metars/
 
KABQ 240539Z 2406/2506 12010KT P6SM SKC 
     FM241000 VRB04KT P6SM SKC 
     FM241900 21008KT P6SM SKC
       
KABY 240524Z 2406/2506 VRB03KT P6SM SCT250 
     FM240800 00000KT 2SM BR BKN006 
     FM241400 VRB05KT P6SM -SHRA SCT020 BKN030 
     FM241600 20008KT 6SM -TSRA BKN030CB 
     FM242300 VRB05KT P6SM BKN030
       
KACT 240520Z 2406/2506 16006KT P6SM FEW250 
     TEMPO 2413/2416 BKN015 
     FM241600 17006KT P6SM SCT060
       
KACV 240522Z 2406/2506 31003KT 6SM BR OVC022 
     FM240900 VRB03KT 3SM -DZ BR OVC025 
     FM241500 33002KT 4SM BR OVC022 
     PROB30 2415/2417 3SM -DZ BR OVC020 
     FM241900 30006KT P6SM SCT025 
     FM242200 29006KT P6SM BKN050 
     FM250300 31005KT P6SM BKN035 
     PROB30 2503/2506 P6SM -SHRA OVC035
       
TAF KADW 240100Z 2401/2507 35009KT 9999 FEW050 QNH3006INS WND 18009KT AFT 2501 TX28/2418Z TN17/2408Z
       
KAEG 240539Z 2406/2506 17010KT P6SM SKC 
     FM241000 VRB05KT P6SM SKC 
     FM241900 19009KT P6SM SKC
       
KAEX 240520Z 2406/2506 VRB03KT P6SM VCTS SCT025 BKN050CB 
     TEMPO 2406/2408 VRB15G25KT OVC025CB 
     FM240800 00000KT P6SM BKN050 
     FM241600 09005KT P6SM VCTS SCT025 OVC050CB 
     TEMPO 2420/2424 P6SM TSRA OVC025CB
       
TAF AMD KAFF 231825Z 2318/2417 20018G25KT 9999 SCT200 520009 QNH3002INS WND 140V240 
     TEMPO 2319/2322 20020G32KT 530009 WND 140V240 
     BECMG 2401/2402 20009KT 9999 FEW200 QNH3007INS 
     BECMG 2409/2410 34009KT 9999 SKC QNH3015INS TX27/2321Z TN06/2411Z LAST NO AMDS AFT 2318 NEXT 2911
       
KAFW 240520Z 2406/2506 16008KT P6SM SCT060 SCT300
       
KAGC 240520Z 2406/2506 VRB03KT P6SM SKC
       
KAGS 240528Z 2406/2506 VRB03KT 3SM BR SCT002 BKN008 
     TEMPO 2406/2409 1/2SM FG VV002 
     FM240900 VRB03KT 2SM BR OVC004 
     TEMPO 2409/2412 1/2SM FG VV002 
     FM241500 11005KT P6SM BKN015 
     FM241800 13006KT P6SM VCSH BKN035 
     TEMPO 2419/2423 SHRA
       
KAHN 240724Z 2407/2506 00000KT 2SM BR OVC002 
     TEMPO 2407/2411 1SM BR OVC001 
     FM241100 00000KT P6SM BKN003 
     FM241500 07006KT P6SM VCSH BKN020 
     FM241800 08006KT P6SM SHRA BKN035 
     PROB30 2418/2424 4SM TSRA OVC015CB 
     FM250100 00000KT P6SM BKN025
       
KAIA 240520Z 2406/2506 09008KT P6SM SCT100 
     FM241700 29012G20KT P6SM SCT100 BKN250 
     FM242300 25008KT P6SM BKN250
       
KALB 240531Z 2406/2506 30005KT P6SM SCT250 
     FM241300 34008KT P6SM SKC 
     FM241700 29010G16KT P6SM SCT070 
     FM250000 23006KT P6SM SCT070
       
KALS 240523Z 2406/2506 19007KT P6SM SCT250 
     FM240800 VRB06KT P6SM SCT250 
     FM241800 24010G20KT P6SM SCT250 
     FM250200 28008KT P6SM FEW250
       
KALW 240532Z 2406/2506 18011KT P6SM VCSH BKN080 
     FM240700 17009KT P6SM SCT080 BKN130 
     FM241400 20011KT P6SM FEW070 SCT150 
     FM242200 19008KT P6SM VCSH SCT070 BKN120
       
KAMA 240532Z 2406/2506 35020G30KT P6SM VCTS BKN060CB 
     TEMPO 2406/2408 VRB30G40KT 3SM TSRA BR OVC040CB 
     FM240800 16010KT P6SM BKN250 
     FM241800 19015G22KT P6SM SCT250 
     FM250100 16014KT P6SM SCT250
       
KANB 240520Z 2406/2506 00000KT P6SM SCT250 
     FM240900 00000KT 4SM BR BKN025 BKN250 
     TEMPO 2410/2413 1SM BR 
     FM241400 06005KT P6SM SCT250
       
KAND 240525Z 2406/2506 00000KT 6SM BR SCT150 
     FM240900 VRB02KT 1 1/2SM BR BKN007 
     TEMPO 2409/2413 1/2SM FG BKN003 
     FM241400 06008KT P6SM VCSH BKN040 
     PROB30 2415/2421 4SM TSRA OVC025CB 
     FM242100 09007KT P6SM SHRA VCTS BKN050CB 
     FM250200 09005KT P6SM OVC027 
     FM250500 09004KT 6SM BR OVC012
       
KAOO 240528Z 2406/2506 27005KT P6SM SKC 
     FM241330 VRB03KT P6SM SKC
       
KAPA 240532Z 2406/2506 31008KT P6SM FEW100 SCT150 
     FM240700 28005KT P6SM FEW100 SCT150 
     FM240800 22009KT P6SM FEW150 
     FM241600 VRB05KT P6SM FEW150 
     FM242100 05008KT P6SM FEW100 BKN150 
     FM250100 14010KT P6SM BKN150 
     FM250400 20011KT P6SM SCT150
       
KAPF 240540Z 2406/2506 VRB03KT P6SM SCT025 SCT045 BKN120 
     FM241200 08006KT P6SM VCSH SCT025 BKN050 BKN120 
     FM241700 22008KT P6SM VCTS SCT025CB BKN040 BKN100 
     FM250100 VRB04KT P6SM VCSH SCT025 BKN050 
     FM250300 VRB02KT P6SM SCT025 BKN050
       
KAPN 240527Z 2406/2506 00000KT P6SM SKC 
     FM241700 12008KT P6SM FEW250 
     FM250000 22005KT P6SM FEW200
       
KARA 240520Z 2406/2506 VRB03KT P6SM VCTS SCT025 BKN050CB 
     TEMPO 2406/2408 VRB15G25KT OVC025CB 
     FM240800 00000KT P6SM BKN050 
     FM241600 12006KT P6SM VCTS SCT025 OVC050CB 
     TEMPO 2420/2424 P6SM TSRA OVC025CB
       
KASD 240520Z 2406/2506 11003KT P6SM FEW030 SCT050 
     PROB30 2415/2417 4SM -TSRA BKN015CB BKN020 
     FM241700 11004KT P6SM SCT020 BKN100 
     PROB30 2417/2421 4SM -TSRA BKN020CB 
     FM242100 13004KT P6SM -SHRA VCTS SCT025CB BKN090 
     FM250000 16004KT P6SM SCT010 BKN100 
     PROB30 2500/2504 4SM -TSRA BKN010CB BKN015
       
KASE 240520Z 2406/2506 20008KT P6SM SKC 
     FM241300 VRB04KT P6SM FEW250 
     FM241900 33010G17KT P6SM SCT250 
     FM250300 21005KT P6SM SKC
       
KASN 240520Z 2406/2506 00000KT P6SM SCT250 
     FM240900 00000KT 4SM BR BKN025 BKN250 
     TEMPO 2410/2413 1SM BR 
     FM241400 04005KT P6SM SCT250
       
KAST 240520Z 2406/2506 27004KT P6SM BKN008 OVC015 
     FM240900 25004KT 4SM -DZ BR BKN008 BKN015 OVC025 
     FM241200 25003KT 6SM BR SCT008 OVC015 
     FM241500 VRB03KT 6SM BR SCT015 OVC025 
     FM241800 30004KT P6SM SCT015 BKN025 
     FM242100 31008KT P6SM SCT025
       
KATW 240520Z 2406/2506 17005KT P6SM BKN250 
     FM241700 19008KT P6SM SCT035 BKN200
       
KATL 240542Z 2406/2512 14003KT P6SM SCT008 BKN250 
     TEMPO 2406/2408 BKN012 
     FM240800 00000KT P6SM BKN015 
     FM241200 07004KT P6SM BKN009 
     FM241500 07006KT P6SM VCSH BKN025 
     FM241800 09005KT P6SM SHRA BKN040 
     PROB30 2420/2502 4SM TSRA BKN015CB 
     FM250200 11005KT P6SM OVC030
       
KATY 240540Z 2406/2506 16011KT P6SM VCSH BKN150 WS020/20040KT 
     FM241000 18012KT P6SM BKN150 
     FM241500 19014G20KT P6SM BKN200 
     FM242100 19015G23KT P6SM VCTS SCT060CB SCT200 
     FM250200 19009KT P6SM SCT250
       
KAUG 240523Z 2406/2506 03004KT P6SM SCT090 
     FM241600 20009G15KT P6SM BKN050 
     FM250200 20006KT P6SM SCT070
       
KAUS 240723Z 2407/2512 VRB03KT 6SM BR BKN015 
     FM241200 VRB02KT 3SM BR OVC006 
     FM241400 17006KT P6SM BKN015 
     FM241600 14007KT P6SM SCT040
       
KAUW 240520Z 2406/2506 21003KT P6SM SCT120 
     FM241300 19010G17KT P6SM FEW035 BKN120 
     FM242300 20007KT P6SM SCT120 
     FM250400 19007KT P6SM SCT250 WS010/23020KT
       
KAVL 240525Z 2406/2506 VRB02KT 6SM BR BKN150 
     FM241500 12006KT P6SM VCSH BKN050 
     PROB30 2420/2502 4SM -TSRA OVC025CB 
     FM250200 15003KT P6SM VCSH BKN030 
     FM250500 14003KT 6SM BR VCSH BKN010
       
KAVP 240529Z 2406/2506 VRB02KT P6SM SKC 
     FM241500 33007KT P6SM SKC 
     FM250000 VRB02KT P6SM SKC
       
KAXN 240715Z 2407/2506 15011KT P6SM VCTS SCT070CB BKN110 
     FM240900 15010KT P6SM SCT070 BKN110 
     FM241500 18015G23KT P6SM SCT050 BKN150 
     PROB30 2421/2501 -TSRA BKN050CB 
     FM250100 18008KT P6SM SCT050
       
KAZO 240618Z 2406/2506 00000KT 5SM BR SKC 
     FM240900 00000KT 4SM BR SCT250 
     FM241300 19005KT P6SM SCT035 
     FM241700 20007KT P6SM SCT035 
     FM250000 VRB05KT P6SM SKC